Terminal Aerodrome Forecast
Issued by NWS Twin Cities, MN

Home | Current Version | Previous Version | Text Only | Print | Product List | Glossary Off
Versions: 1 2 3 4 5 6 7 8 9 10 11 12 13 14 15 16 17 18 19 20 21 22 23

000
FTUS43 KMPX 281700
TAFEAU
TAF
KEAU 281732Z 2818/2918 21007KT P6SM SCT060
     FM290000 20005KT P6SM FEW060
     FM290800 27004KT P6SM BKN060
     FM291000 34004KT 4SM BR BKN025 OVC050
     FM291400 02010KT P6SM VCSH BKN012 OVC025=

USA.gov is the U.S. government's official web portal to all federal, state and local government web resources and services.